createdAt,value
2018-06-30T00:02:28.583Z,20.30
2018-06-30T00:04:56.906Z,20.20
2018-06-30T00:07:25.250Z,20.20
2018-06-30T00:09:53.591Z,20.20
2018-06-30T00:12:21.995Z,20.20
2018-06-30T00:14:50.335Z,20.20
2018-06-30T00:17:18.674Z,20.20
2018-06-30T00:19:47.018Z,20.10
2018-06-30T00:22:15.354Z,20.10
2018-06-30T00:24:43.690Z,20.10
2018-06-30T00:27:17.526Z,20.10
2018-06-30T00:29:45.846Z,20.00
2018-06-30T00:32:14.186Z,20.00
2018-06-30T00:34:42.504Z,20.00
2018-06-30T00:37:10.826Z,20.00
2018-06-30T00:39:39.155Z,20.00
2018-06-30T00:42:07.478Z,20.00
2018-06-30T00:44:35.822Z,19.90
2018-06-30T00:47:04.159Z,19.90
2018-06-30T00:49:32.499Z,19.90
2018-06-30T00:52:00.835Z,19.90
2018-06-30T00:54:29.195Z,19.90
2018-06-30T00:56:57.543Z,19.90
2018-06-30T00:59:25.906Z,19.80
2018-06-30T01:01:54.366Z,19.80
2018-06-30T01:04:22.774Z,19.80
2018-06-30T01:06:51.162Z,19.70
2018-06-30T01:09:19.501Z,19.70
2018-06-30T01:11:47.826Z,19.70
2018-06-30T01:14:16.182Z,19.60
2018-06-30T01:16:44.526Z,19.60
2018-06-30T01:19:13.159Z,19.60
2018-06-30T01:21:41.483Z,19.60
2018-06-30T01:24:10.075Z,19.60
2018-06-30T01:26:38.430Z,19.50
2018-06-30T01:31:34.918Z,19.50
2018-06-30T01:34:03.294Z,19.50
2018-06-30T01:36:31.626Z,19.40
2018-06-30T01:38:59.963Z,19.40
2018-06-30T01:41:28.303Z,19.30
2018-06-30T01:43:56.647Z,19.30
2018-06-30T01:46:24.986Z,19.30
2018-06-30T01:48:53.352Z,19.20
2018-06-30T01:51:22.214Z,19.20
2018-06-30T01:53:50.575Z,19.20
2018-06-30T01:56:18.903Z,19.20
2018-06-30T01:58:47.295Z,19.20
2018-06-30T02:01:15.614Z,19.20
2018-06-30T02:03:44.048Z,19.20
2018-06-30T02:06:12.367Z,19.30
2018-06-30T02:08:40.698Z,19.30
2018-06-30T02:11:09.046Z,19.20
2018-06-30T02:13:37.482Z,19.20
2018-06-30T02:16:05.842Z,19.10
2018-06-30T02:18:34.177Z,19.00
2018-06-30T02:21:02.491Z,19.00
2018-06-30T02:23:30.823Z,19.10
2018-06-30T02:25:59.277Z,19.10
2018-06-30T02:28:28.366Z,19.00
2018-06-30T02:30:56.731Z,19.10
2018-06-30T02:33:25.131Z,19.00
2018-06-30T02:35:53.472Z,19.00
2018-06-30T02:38:21.811Z,19.00
2018-06-30T02:40:50.169Z,18.90
2018-06-30T02:43:18.494Z,18.90
2018-06-30T02:45:46.877Z,18.90
2018-06-30T02:48:15.191Z,18.80
2018-06-30T02:50:43.570Z,18.80
2018-06-30T02:55:39.978Z,18.70
2018-06-30T02:58:08.561Z,18.70
2018-06-30T03:00:36.915Z,18.70
2018-06-30T03:03:05.556Z,18.60
2018-06-30T03:05:33.908Z,18.60
2018-06-30T03:08:02.226Z,18.60
2018-06-30T03:10:30.578Z,18.50
2018-06-30T03:12:58.902Z,18.50
2018-06-30T03:17:55.286Z,18.50
2018-06-30T03:20:23.633Z,18.50
2018-06-30T03:22:51.999Z,18.40
2018-06-30T03:25:20.378Z,18.50
2018-06-30T03:27:48.694Z,18.40
2018-06-30T03:30:17.034Z,18.40
2018-06-30T03:32:45.367Z,18.40
2018-06-30T03:35:13.698Z,18.30
2018-06-30T03:37:42.015Z,18.30
2018-06-30T03:40:10.367Z,18.30
2018-06-30T03:42:38.687Z,18.30
2018-06-30T03:45:07.051Z,18.30
2018-06-30T03:47:35.379Z,18.30
2018-06-30T03:50:03.938Z,18.30
2018-06-30T03:52:32.253Z,18.20
2018-06-30T03:55:00.606Z,18.20
2018-06-30T03:57:28.963Z,18.10
2018-06-30T03:59:57.303Z,18.10
2018-06-30T04:02:25.635Z,18.20
2018-06-30T04:04:54.039Z,18.20
2018-06-30T04:07:22.519Z,18.20
2018-06-30T04:09:50.870Z,18.20
2018-06-30T04:12:19.197Z,18.30
2018-06-30T04:14:47.544Z,18.30
2018-06-30T04:17:15.862Z,18.30
2018-06-30T04:19:44.220Z,18.30
2018-06-30T04:22:12.670Z,18.30
2018-06-30T04:24:40.908Z,18.40
2018-06-30T04:27:09.263Z,18.40
2018-06-30T04:29:37.587Z,18.50
2018-06-30T04:32:05.946Z,18.50
2018-06-30T04:34:34.303Z,18.50
2018-06-30T04:37:02.656Z,18.50
2018-06-30T04:39:30.971Z,18.50
2018-06-30T04:41:59.313Z,18.50
2018-06-30T04:44:27.639Z,18.70
2018-06-30T04:46:55.975Z,18.70
2018-06-30T04:49:24.339Z,18.70
2018-06-30T04:51:52.695Z,18.80
2018-06-30T04:54:21.018Z,18.80
2018-06-30T04:56:49.371Z,18.90
2018-06-30T04:59:17.747Z,18.90
2018-06-30T05:01:46.083Z,19.00
2018-06-30T05:04:14.407Z,19.00
2018-06-30T05:06:42.780Z,19.10
2018-06-30T05:09:11.105Z,19.20
2018-06-30T05:11:39.446Z,19.30
2018-06-30T05:14:07.765Z,19.40
2018-06-30T05:16:36.112Z,19.60
2018-06-30T05:19:04.470Z,19.70
2018-06-30T05:21:32.808Z,19.90
2018-06-30T05:24:01.134Z,20.10
2018-06-30T05:26:29.797Z,20.20
2018-06-30T05:28:58.127Z,20.50
2018-06-30T05:31:26.486Z,20.70
2018-06-30T05:33:54.858Z,21.00
2018-06-30T05:36:23.191Z,21.20
2018-06-30T05:41:19.563Z,21.80
2018-06-30T05:43:47.886Z,22.00
2018-06-30T05:46:16.247Z,22.20
2018-06-30T05:48:44.579Z,22.50
2018-06-30T05:51:12.913Z,22.70
2018-06-30T05:53:41.262Z,22.80
2018-06-30T05:56:09.616Z,22.90
2018-06-30T05:58:37.970Z,23.20
2018-06-30T06:01:06.782Z,23.40
2018-06-30T06:03:35.142Z,23.60
2018-06-30T06:06:03.563Z,23.70
2018-06-30T06:08:32.083Z,23.90
2018-06-30T06:11:00.467Z,24.00
2018-06-30T06:13:28.900Z,24.10
2018-06-30T06:15:57.276Z,24.20
2018-06-30T06:18:25.623Z,24.30
2018-06-30T06:20:53.967Z,24.40
2018-06-30T06:23:22.319Z,24.50
2018-06-30T06:25:50.702Z,24.60
2018-06-30T06:28:19.077Z,24.70
2018-06-30T06:30:47.419Z,24.80
2018-06-30T06:33:15.756Z,24.90
2018-06-30T06:35:44.075Z,24.90
2018-06-30T06:38:12.412Z,25.00
2018-06-30T06:40:40.747Z,25.30
2018-06-30T06:43:09.135Z,25.30
2018-06-30T06:45:37.471Z,25.20
2018-06-30T06:48:06.194Z,25.30
2018-06-30T06:50:34.519Z,25.50
2018-06-30T06:53:02.855Z,25.70
2018-06-30T06:55:31.167Z,25.80
2018-06-30T06:57:59.523Z,25.80
2018-06-30T07:00:27.970Z,25.90
2018-06-30T07:02:56.322Z,25.90
2018-06-30T07:05:24.750Z,26.00
2018-06-30T07:07:53.102Z,26.10
2018-06-30T07:10:21.443Z,26.10
2018-06-30T07:12:50.003Z,26.40
2018-06-30T07:15:18.331Z,26.60
2018-06-30T07:17:46.698Z,26.60
2018-06-30T07:20:15.035Z,26.80
2018-06-30T07:22:43.396Z,26.90
2018-06-30T07:25:11.853Z,26.80
2018-06-30T07:27:40.187Z,26.90
2018-06-30T07:30:08.818Z,27.20
2018-06-30T07:32:37.187Z,27.30
2018-06-30T07:37:33.672Z,27.40
2018-06-30T07:40:01.992Z,27.20
2018-06-30T07:42:30.326Z,27.50
2018-06-30T07:44:58.647Z,27.60
2018-06-30T07:47:26.987Z,27.70
2018-06-30T07:49:55.315Z,27.70
2018-06-30T07:52:23.650Z,27.80
2018-06-30T07:54:51.982Z,28.10
2018-06-30T07:57:20.319Z,28.30
2018-06-30T07:59:48.658Z,28.20
2018-06-30T08:02:17.210Z,28.20
2018-06-30T08:04:45.526Z,28.30
2018-06-30T08:07:14.000Z,28.40
2018-06-30T08:09:42.363Z,28.40
2018-06-30T08:12:10.703Z,28.20
2018-06-30T08:14:39.058Z,28.10
2018-06-30T08:17:07.410Z,28.20
2018-06-30T08:19:35.736Z,28.10
2018-06-30T08:22:04.118Z,27.90
2018-06-30T08:24:32.523Z,28.30
2018-06-30T08:27:00.883Z,28.60
2018-06-30T08:29:29.230Z,28.60
2018-06-30T08:31:57.559Z,28.60
2018-06-30T08:34:25.914Z,28.70
2018-06-30T08:36:54.327Z,28.80
2018-06-30T08:39:22.695Z,28.90
2018-06-30T08:41:51.047Z,28.80
2018-06-30T08:44:19.386Z,29.00
2018-06-30T08:46:47.703Z,29.20
2018-06-30T08:49:16.042Z,29.10
2018-06-30T08:51:44.516Z,29.30
2018-06-30T08:54:12.847Z,29.50
2018-06-30T08:56:41.169Z,29.40
2018-06-30T08:59:09.531Z,29.40
2018-06-30T09:01:37.847Z,29.50
2018-06-30T09:04:06.523Z,29.70
2018-06-30T09:06:34.879Z,29.80
2018-06-30T09:09:03.299Z,29.80
2018-06-30T09:11:31.622Z,29.90
2018-06-30T09:13:59.982Z,29.80
2018-06-30T09:16:28.300Z,29.70
2018-06-30T09:18:56.639Z,29.70
2018-06-30T09:21:24.959Z,29.60
2018-06-30T09:26:21.378Z,29.50
2018-06-30T09:28:49.867Z,29.70
2018-06-30T09:31:18.255Z,30.00
2018-06-30T09:33:46.590Z,30.00
2018-06-30T09:36:14.911Z,30.20
2018-06-30T09:38:43.276Z,30.20
2018-06-30T09:41:11.591Z,30.30
2018-06-30T09:43:39.943Z,30.10
2018-06-30T09:46:08.271Z,29.70
2018-06-30T09:48:36.611Z,29.60
2018-06-30T09:51:05.040Z,29.70
2018-06-30T09:53:33.287Z,30.00
2018-06-30T09:56:01.615Z,29.90
2018-06-30T09:58:29.986Z,29.60
2018-06-30T10:01:03.660Z,29.40
2018-06-30T10:03:32.007Z,29.20
2018-06-30T10:06:00.360Z,29.10
2018-06-30T10:08:28.702Z,29.20
2018-06-30T10:10:57.261Z,29.10
2018-06-30T10:13:25.637Z,29.00
2018-06-30T10:15:54.195Z,29.10
2018-06-30T10:18:22.606Z,29.00
2018-06-30T10:20:51.032Z,29.00
2018-06-30T10:23:19.335Z,29.10
2018-06-30T10:25:47.731Z,29.30
2018-06-30T10:28:16.098Z,29.60
2018-06-30T10:30:44.439Z,29.90
2018-06-30T10:33:12.790Z,30.10
2018-06-30T10:35:41.116Z,30.10
2018-06-30T10:38:09.479Z,29.90
2018-06-30T10:40:37.863Z,29.90
2018-06-30T10:43:06.491Z,30.10
2018-06-30T10:45:34.841Z,30.00
2018-06-30T10:48:03.217Z,30.20
2018-06-30T10:50:31.658Z,30.20
2018-06-30T10:52:59.975Z,30.20
2018-06-30T10:55:28.374Z,30.20
2018-06-30T10:57:56.750Z,30.20
2018-06-30T11:00:25.160Z,30.30
2018-06-30T11:02:53.447Z,30.10
2018-06-30T11:05:21.839Z,30.20
2018-06-30T11:07:50.183Z,30.40
2018-06-30T11:10:18.552Z,30.40
2018-06-30T11:12:46.929Z,30.50
2018-06-30T11:15:15.253Z,30.50
2018-06-30T11:17:43.743Z,30.30
2018-06-30T11:20:12.165Z,30.20
2018-06-30T11:22:40.498Z,30.20
2018-06-30T11:25:09.370Z,30.20
2018-06-30T11:27:37.699Z,30.10
2018-06-30T11:30:06.299Z,30.00
2018-06-30T11:32:35.263Z,29.90
2018-06-30T11:35:03.650Z,29.90
2018-06-30T11:37:32.119Z,29.90
2018-06-30T11:40:00.486Z,29.90
2018-06-30T11:42:28.819Z,29.30
2018-06-30T11:44:57.245Z,29.10
2018-06-30T11:47:25.684Z,29.10
2018-06-30T11:49:54.079Z,29.20
2018-06-30T11:52:22.491Z,29.50
2018-06-30T11:54:51.143Z,29.70
2018-06-30T11:57:19.478Z,29.80
2018-06-30T11:59:47.826Z,29.80
2018-06-30T12:02:16.164Z,29.70
2018-06-30T12:04:44.495Z,29.50
2018-06-30T12:07:12.825Z,29.30
2018-06-30T12:09:41.166Z,29.10
2018-06-30T12:12:09.475Z,29.10
2018-06-30T12:14:37.827Z,29.30
2018-06-30T12:17:06.234Z,29.40
2018-06-30T12:19:35.010Z,29.30
2018-06-30T12:22:03.447Z,29.50
2018-06-30T12:24:31.786Z,29.70
2018-06-30T12:27:00.106Z,29.80
2018-06-30T12:29:28.574Z,29.90
2018-06-30T12:31:56.902Z,29.80
2018-06-30T12:34:25.412Z,29.70
2018-06-30T12:36:53.739Z,29.40
2018-06-30T12:39:22.395Z,29.40
2018-06-30T12:41:50.731Z,29.50
2018-06-30T12:44:19.050Z,29.70
2018-06-30T12:46:47.432Z,29.70
2018-06-30T12:49:15.775Z,29.60
2018-06-30T12:51:44.111Z,29.70
2018-06-30T12:54:12.619Z,29.70
2018-06-30T12:56:40.971Z,29.60
2018-06-30T12:59:09.342Z,29.60
2018-06-30T13:01:37.698Z,29.60
2018-06-30T13:04:06.063Z,29.40
2018-06-30T13:06:34.411Z,29.30
2018-06-30T13:09:02.836Z,29.10
2018-06-30T13:11:31.160Z,29.10
2018-06-30T13:13:59.479Z,29.20
2018-06-30T13:16:27.823Z,29.40
2018-06-30T13:18:56.170Z,29.30
2018-06-30T13:21:24.511Z,29.20
2018-06-30T13:23:52.843Z,29.00
2018-06-30T13:26:21.219Z,29.10
2018-06-30T13:28:49.577Z,29.20
2018-06-30T13:31:17.983Z,29.30
2018-06-30T13:33:46.347Z,29.30
2018-06-30T13:36:14.718Z,29.30
2018-06-30T13:38:43.119Z,29.30
2018-06-30T13:41:11.491Z,29.30
2018-06-30T13:43:39.879Z,29.50
2018-06-30T13:46:08.262Z,29.60
2018-06-30T13:48:36.619Z,29.60
2018-06-30T13:51:04.971Z,29.60
2018-06-30T13:53:33.318Z,29.80
2018-06-30T13:56:01.659Z,29.90
2018-06-30T13:58:29.995Z,30.00
2018-06-30T14:00:58.398Z,30.00
2018-06-30T14:03:26.691Z,30.10
2018-06-30T14:05:55.027Z,30.00
2018-06-30T14:08:23.367Z,29.90
2018-06-30T14:10:51.755Z,29.80
2018-06-30T14:13:20.084Z,29.80
2018-06-30T14:15:48.430Z,29.90
2018-06-30T14:18:16.784Z,30.10
2018-06-30T14:20:45.122Z,30.20
2018-06-30T14:25:41.543Z,30.20
2018-06-30T14:28:10.155Z,30.30
2018-06-30T14:30:38.494Z,30.30
2018-06-30T14:33:06.835Z,30.20
2018-06-30T14:35:35.203Z,30.20
2018-06-30T14:38:03.567Z,30.10
2018-06-30T14:40:31.891Z,29.90
2018-06-30T14:43:00.230Z,29.80
2018-06-30T14:45:28.595Z,29.80
2018-06-30T14:47:56.930Z,29.80
2018-06-30T14:50:25.595Z,30.00
2018-06-30T14:52:54.595Z,30.10
2018-06-30T14:55:22.919Z,30.00
2018-06-30T14:57:51.359Z,30.00
2018-06-30T15:00:19.806Z,30.00
2018-06-30T15:02:48.303Z,30.10
2018-06-30T15:05:16.643Z,30.00
2018-06-30T15:07:44.984Z,29.90
2018-06-30T15:10:13.322Z,29.90
2018-06-30T15:12:41.664Z,29.90
2018-06-30T15:15:10.075Z,29.90
2018-06-30T15:17:38.707Z,29.80
2018-06-30T15:20:07.275Z,29.70
2018-06-30T15:22:35.842Z,29.70
2018-06-30T15:27:32.455Z,29.70
2018-06-30T15:32:28.850Z,29.80
2018-06-30T15:34:57.265Z,29.90
2018-06-30T15:37:25.612Z,29.90
2018-06-30T15:39:53.939Z,29.80
2018-06-30T15:42:22.303Z,29.90
2018-06-30T15:44:50.680Z,29.90
2018-06-30T15:47:19.055Z,29.90
2018-06-30T15:49:47.379Z,30.00
2018-06-30T15:52:16.205Z,30.00
2018-06-30T15:54:44.562Z,30.00
2018-06-30T15:57:13.019Z,29.90
2018-06-30T15:59:41.359Z,29.90
2018-06-30T16:02:09.747Z,29.80
2018-06-30T16:04:38.069Z,29.70
2018-06-30T16:07:06.407Z,29.70
2018-06-30T16:09:34.743Z,29.80
2018-06-30T16:12:03.108Z,29.70
2018-06-30T16:14:31.445Z,29.60
2018-06-30T16:16:59.810Z,29.50
2018-06-30T16:19:28.134Z,29.30
2018-06-30T16:21:56.474Z,29.10
2018-06-30T16:24:24.806Z,29.00
2018-06-30T16:26:53.257Z,28.90
2018-06-30T16:29:21.920Z,28.80
2018-06-30T16:31:50.285Z,28.70
2018-06-30T16:34:18.639Z,28.80
2018-06-30T16:36:46.978Z,28.80
2018-06-30T16:39:15.295Z,28.70
2018-06-30T16:41:44.376Z,28.70
2018-06-30T16:44:12.726Z,28.70
2018-06-30T16:46:41.361Z,28.80
2018-06-30T16:49:09.756Z,28.80
2018-06-30T16:51:38.051Z,28.70
2018-06-30T16:54:06.411Z,28.70
2018-06-30T16:56:34.724Z,28.70
2018-06-30T16:59:03.140Z,28.70
2018-06-30T17:01:31.475Z,28.70
2018-06-30T17:03:59.990Z,28.70
2018-06-30T17:06:28.479Z,28.60
2018-06-30T17:08:56.823Z,28.60
2018-06-30T17:11:25.156Z,28.50
2018-06-30T17:16:21.963Z,28.60
2018-06-30T17:18:50.303Z,28.60
2018-06-30T17:21:18.668Z,28.50
2018-06-30T17:23:47.086Z,28.50
2018-06-30T17:26:15.432Z,28.40
2018-06-30T17:28:43.780Z,28.40
2018-06-30T17:31:12.111Z,28.30
2018-06-30T17:33:40.447Z,28.20
2018-06-30T17:36:08.778Z,28.10
2018-06-30T17:38:37.119Z,28.10
2018-06-30T17:41:05.567Z,27.90
2018-06-30T17:43:33.943Z,27.90
2018-06-30T17:46:02.260Z,27.90
2018-06-30T17:48:30.595Z,28.00
2018-06-30T17:50:59.007Z,27.90
2018-06-30T17:53:27.393Z,27.90
2018-06-30T17:55:55.726Z,27.80
2018-06-30T17:58:24.099Z,27.90
2018-06-30T18:00:52.424Z,27.90
2018-06-30T18:03:20.849Z,27.90
2018-06-30T18:05:49.171Z,27.90
2018-06-30T18:08:17.560Z,27.80
2018-06-30T18:10:45.902Z,27.80
2018-06-30T18:13:14.275Z,27.60
2018-06-30T18:15:42.610Z,27.60
2018-06-30T18:18:10.971Z,27.40
2018-06-30T18:20:39.307Z,27.40
2018-06-30T18:23:07.656Z,27.30
2018-06-30T18:25:36.134Z,27.20
2018-06-30T18:28:04.519Z,27.20
2018-06-30T18:30:32.902Z,27.10
2018-06-30T18:33:01.260Z,27.10
2018-06-30T18:35:29.587Z,27.00
2018-06-30T18:37:57.931Z,26.90
2018-06-30T18:40:26.271Z,26.90
2018-06-30T18:42:54.618Z,26.80
2018-06-30T18:45:23.021Z,26.70
2018-06-30T18:47:51.409Z,26.60
2018-06-30T18:50:19.775Z,26.60
2018-06-30T18:52:48.256Z,26.50
2018-06-30T18:55:23.303Z,26.40
2018-06-30T18:57:51.711Z,26.30
2018-06-30T19:00:20.065Z,26.20
2018-06-30T19:05:16.467Z,26.10
2018-06-30T19:07:44.871Z,25.90
2018-06-30T19:10:13.407Z,25.90
2018-06-30T19:12:41.570Z,25.70
2018-06-30T19:15:09.947Z,25.60
2018-06-30T19:17:38.292Z,25.60
2018-06-30T19:22:34.743Z,25.40
2018-06-30T19:25:03.405Z,25.40
2018-06-30T19:27:31.765Z,25.20
2018-06-30T19:30:00.143Z,25.10
2018-06-30T19:32:28.484Z,25.10
2018-06-30T19:34:56.834Z,25.00
2018-06-30T19:37:25.255Z,25.00
2018-06-30T19:39:53.771Z,24.90
2018-06-30T19:42:22.176Z,24.80
2018-06-30T19:44:50.775Z,24.70
2018-06-30T19:47:19.103Z,24.60
2018-06-30T19:49:47.479Z,24.60
2018-06-30T19:52:15.851Z,24.60
2018-06-30T19:54:44.216Z,24.60
2018-06-30T19:57:12.600Z,24.50
2018-06-30T19:59:40.962Z,24.40
2018-06-30T20:02:09.307Z,24.30
2018-06-30T20:04:37.715Z,24.20
2018-06-30T20:07:06.184Z,24.20
2018-06-30T20:09:34.522Z,24.10
2018-06-30T20:12:02.923Z,24.00
2018-06-30T20:14:31.239Z,23.90
2018-06-30T20:16:59.576Z,23.80
2018-06-30T20:19:27.931Z,23.60
2018-06-30T20:21:56.286Z,23.60
2018-06-30T20:24:24.655Z,23.50
2018-06-30T20:26:53.055Z,23.50
2018-06-30T20:29:21.694Z,23.40
2018-06-30T20:31:50.027Z,23.30
2018-06-30T20:34:18.367Z,23.20
2018-06-30T20:36:46.690Z,23.10
2018-06-30T20:39:15.031Z,23.00
2018-06-30T20:41:43.355Z,23.00
2018-06-30T20:44:11.695Z,23.00
2018-06-30T20:46:40.146Z,22.90
2018-06-30T20:49:08.486Z,22.80
2018-06-30T20:51:36.855Z,22.70
2018-06-30T20:54:05.284Z,22.70
2018-06-30T20:56:33.623Z,22.60
2018-06-30T20:59:01.983Z,22.50
2018-06-30T21:01:30.328Z,22.50
2018-06-30T21:03:58.647Z,22.40
2018-06-30T21:06:26.995Z,22.30
2018-06-30T21:08:55.328Z,22.30
2018-06-30T21:11:23.674Z,22.10
2018-06-30T21:13:52.036Z,22.00
2018-06-30T21:16:20.395Z,21.90
2018-06-30T21:18:48.739Z,21.90
2018-06-30T21:21:17.082Z,21.80
2018-06-30T21:23:45.403Z,21.80
2018-06-30T21:26:13.754Z,21.80
2018-06-30T21:28:42.091Z,21.80
2018-06-30T21:31:10.439Z,21.80
2018-06-30T21:33:38.798Z,21.70
2018-06-30T21:36:07.183Z,21.70
2018-06-30T21:38:35.543Z,21.60
2018-06-30T21:41:03.899Z,21.60
2018-06-30T21:43:32.231Z,21.50
2018-06-30T21:46:00.567Z,21.50
2018-06-30T21:48:28.903Z,21.50
2018-06-30T21:50:57.255Z,21.40
2018-06-30T21:53:25.638Z,21.30
2018-06-30T21:55:53.987Z,21.30
2018-06-30T21:58:23.203Z,21.30
2018-06-30T22:00:56.932Z,21.30
2018-06-30T22:03:26.458Z,21.20
2018-06-30T22:05:56.007Z,21.10
2018-06-30T22:08:24.359Z,21.00
2018-06-30T22:10:52.772Z,20.90
2018-06-30T22:13:21.222Z,20.90
2018-06-30T22:15:50.260Z,20.90
2018-06-30T22:18:18.656Z,20.80
2018-06-30T22:20:46.974Z,20.80
2018-06-30T22:23:15.330Z,20.80
2018-06-30T22:25:43.683Z,20.70
2018-06-30T22:28:12.023Z,20.70
2018-06-30T22:30:40.384Z,20.70
2018-06-30T22:33:08.716Z,20.60
2018-06-30T22:35:37.059Z,20.60
2018-06-30T22:38:05.759Z,20.50
2018-06-30T22:40:34.111Z,20.40
2018-06-30T22:43:02.466Z,20.30
2018-06-30T22:45:30.810Z,20.30
2018-06-30T22:47:59.130Z,20.30
2018-06-30T22:50:27.490Z,20.20
2018-06-30T22:52:55.962Z,20.20
2018-06-30T22:55:24.395Z,20.10
2018-06-30T22:57:52.743Z,20.10
2018-06-30T23:00:21.146Z,20.00
2018-06-30T23:02:49.596Z,20.00
2018-06-30T23:05:17.970Z,20.00
2018-06-30T23:07:46.315Z,19.90
2018-06-30T23:10:15.115Z,19.90
2018-06-30T23:12:44.255Z,19.80
2018-06-30T23:15:12.635Z,19.80
2018-06-30T23:17:41.012Z,19.70
2018-06-30T23:20:09.557Z,19.70
2018-06-30T23:23:00.619Z,19.80
2018-06-30T23:25:30.032Z,19.70
2018-06-30T23:27:58.751Z,19.70
2018-06-30T23:30:27.760Z,19.60
2018-06-30T23:32:56.267Z,19.60
2018-06-30T23:35:25.608Z,19.60
2018-06-30T23:37:54.935Z,19.50
2018-06-30T23:40:23.331Z,19.50
2018-06-30T23:42:51.855Z,19.40
2018-06-30T23:45:20.743Z,19.40
2018-06-30T23:47:49.779Z,19.40
2018-06-30T23:50:18.202Z,19.40
2018-06-30T23:52:47.347Z,19.30
2018-06-30T23:55:15.699Z,19.30
2018-06-30T23:57:44.075Z,19.20
